createdAt,value
2022-09-20T00:02:32.516Z,87.36
2022-09-20T00:05:23.061Z,87.57
2022-09-20T00:08:16.669Z,88.02
2022-09-20T00:11:08.990Z,87.95
2022-09-20T00:14:01.686Z,88.23
2022-09-20T00:16:51.972Z,88.26
2022-09-20T00:19:42.969Z,88.48
2022-09-20T00:22:33.422Z,88.31
2022-09-20T00:25:25.077Z,88.65
2022-09-20T00:28:14.674Z,88.42
2022-09-20T00:31:06.380Z,88.01
2022-09-20T00:34:20.002Z,88.55
2022-09-20T00:37:09.778Z,87.42
2022-09-20T00:40:00.531Z,86.60
2022-09-20T00:42:51.820Z,87.07
2022-09-20T00:45:41.820Z,86.58
2022-09-20T00:48:34.689Z,87.20
2022-09-20T00:51:32.333Z,86.93
2022-09-20T00:54:25.800Z,87.34
2022-09-20T00:57:16.114Z,87.20
2022-09-20T01:00:09.504Z,87.19
2022-09-20T01:03:10.219Z,87.34
2022-09-20T01:06:03.899Z,87.17
2022-09-20T01:08:54.565Z,87.16
2022-09-20T01:11:44.855Z,87.44
2022-09-20T01:14:35.717Z,87.24
2022-09-20T01:17:30.226Z,87.61
2022-09-20T01:20:33.767Z,86.91
2022-09-20T01:23:31.121Z,86.46
2022-09-20T01:26:30.824Z,86.91
2022-09-20T01:29:28.992Z,86.52
2022-09-20T01:32:23.233Z,87.04
2022-09-20T01:35:15.812Z,86.38
2022-09-20T01:38:27.500Z,86.03
2022-09-20T01:41:27.591Z,85.78
2022-09-20T01:44:37.509Z,85.45
2022-09-20T01:48:22.595Z,85.66
2022-09-20T01:51:52.336Z,85.51
2022-09-20T01:54:48.507Z,84.77
2022-09-20T01:57:49.054Z,85.06
2022-09-20T02:01:16.403Z,84.67
2022-09-20T02:04:31.081Z,84.93
2022-09-20T02:07:24.005Z,84.33
2022-09-20T02:10:50.749Z,83.94
2022-09-20T02:13:47.450Z,83.06
2022-09-20T02:16:44.072Z,83.35
2022-09-20T02:19:43.748Z,83.46
2022-09-20T02:22:44.419Z,83.64
2022-09-20T02:26:04.632Z,83.42
2022-09-20T02:28:58.165Z,82.50
2022-09-20T02:32:03.206Z,82.25
2022-09-20T02:35:20.991Z,82.61
2022-09-20T02:38:44.794Z,82.41
2022-09-20T02:41:53.321Z,83.09
2022-09-20T02:44:52.012Z,82.30
2022-09-20T02:47:45.519Z,82.41
2022-09-20T02:50:46.872Z,83.05
2022-09-20T02:54:01.396Z,83.36
2022-09-20T02:56:57.351Z,83.26
2022-09-20T02:59:58.397Z,82.81
2022-09-20T03:03:36.668Z,82.43
2022-09-20T03:06:45.858Z,81.12
2022-09-20T03:10:16.950Z,80.54
2022-09-20T03:13:26.522Z,79.98
2022-09-20T03:16:28.709Z,80.04
2022-09-20T03:19:40.760Z,79.03
2022-09-20T03:22:56.118Z,80.73
2022-09-20T03:26:03.365Z,78.97
2022-09-20T03:29:07.964Z,79.19
2022-09-20T03:32:29.858Z,80.56
2022-09-20T03:35:38.515Z,79.83
2022-09-20T03:39:02.276Z,80.19
2022-09-20T03:42:22.405Z,79.97
2022-09-20T03:45:43.521Z,81.44
2022-09-20T03:49:15.466Z,81.15
2022-09-20T03:52:33.109Z,80.95
2022-09-20T03:56:08.018Z,80.16
2022-09-20T03:59:21.715Z,79.64
2022-09-20T04:02:18.099Z,79.71
2022-09-20T04:05:14.577Z,79.61
2022-09-20T04:08:24.501Z,80.08
2022-09-20T04:11:28.687Z,79.47
2022-09-20T04:14:34.606Z,80.16
2022-09-20T04:17:58.248Z,79.84
2022-09-20T04:21:09.100Z,79.90
2022-09-20T04:24:15.794Z,79.92
2022-09-20T04:27:09.682Z,79.39
2022-09-20T04:30:07.887Z,79.04
2022-09-20T04:33:22.737Z,79.61
2022-09-20T04:36:32.130Z,79.50
2022-09-20T04:39:31.949Z,78.82
2022-09-20T04:42:35.369Z,79.14
2022-09-20T04:45:52.956Z,79.24
2022-09-20T04:49:08.412Z,79.60
2022-09-20T04:52:08.027Z,79.23
2022-09-20T04:55:29.071Z,79.04
2022-09-20T04:58:40.574Z,79.53
2022-09-20T05:02:10.054Z,79.58
2022-09-20T05:05:29.748Z,80.77
2022-09-20T05:08:32.952Z,81.45
2022-09-20T05:11:42.877Z,81.76
2022-09-20T05:15:03.027Z,81.86
2022-09-20T05:18:25.424Z,82.55
2022-09-20T05:21:46.990Z,82.50
2022-09-20T05:24:58.760Z,83.02
2022-09-20T05:27:53.151Z,83.22
2022-09-20T05:30:52.908Z,83.39
2022-09-20T05:34:09.777Z,83.43
2022-09-20T05:37:25.204Z,83.22
2022-09-20T05:40:25.418Z,83.09
2022-09-20T05:43:23.232Z,82.45
2022-09-20T05:46:37.665Z,82.62
2022-09-20T05:49:43.313Z,82.41
2022-09-20T05:53:08.910Z,82.71
2022-09-20T05:56:14.859Z,82.81
2022-09-20T05:59:39.324Z,82.24
2022-09-20T06:03:05.986Z,82.08
2022-09-20T06:06:02.693Z,82.26
2022-09-20T06:08:59.262Z,81.48
2022-09-20T06:12:14.522Z,80.87
2022-09-20T06:15:20.540Z,79.60
2022-09-20T06:18:20.876Z,78.81
2022-09-20T06:21:47.920Z,78.38
2022-09-20T06:24:47.115Z,78.90
2022-09-20T06:27:46.109Z,78.49
2022-09-20T06:30:58.081Z,77.71
2022-09-20T06:33:58.913Z,78.21
2022-09-20T06:37:12.023Z,78.07
2022-09-20T06:40:59.196Z,77.49
2022-09-20T06:43:50.443Z,77.55
2022-09-20T06:46:43.038Z,76.95
2022-09-20T06:49:39.935Z,76.40
2022-09-20T06:52:31.514Z,76.74
2022-09-20T06:55:32.404Z,76.32
2022-09-20T06:58:22.945Z,76.98
2022-09-20T07:01:19.994Z,76.05
2022-09-20T07:04:20.470Z,76.04
2022-09-20T07:07:15.850Z,75.59
2022-09-20T07:10:06.633Z,75.88
2022-09-20T07:13:03.363Z,76.29
2022-09-20T07:15:56.264Z,76.19
2022-09-20T07:18:49.863Z,76.32
2022-09-20T07:21:40.327Z,76.06
2022-09-20T07:24:33.716Z,76.25
2022-09-20T07:27:29.123Z,76.33
2022-09-20T07:30:23.054Z,75.79
2022-09-20T07:33:18.595Z,75.98
2022-09-20T07:36:10.640Z,76.76
2022-09-20T07:39:01.253Z,77.02
2022-09-20T07:41:52.701Z,77.11
2022-09-20T07:44:44.788Z,76.58
2022-09-20T07:47:40.714Z,76.95
2022-09-20T07:50:30.859Z,76.81
2022-09-20T07:53:22.155Z,76.66
2022-09-20T07:56:14.808Z,76.57
2022-09-20T07:59:07.322Z,75.59
2022-09-20T08:01:59.192Z,74.52
2022-09-20T08:04:52.454Z,74.51
2022-09-20T08:07:43.271Z,74.42
2022-09-20T08:10:34.348Z,74.60
2022-09-20T08:16:38.968Z,75.17
2022-09-20T08:19:33.908Z,76.44
2022-09-20T08:22:27.123Z,76.91
2022-09-20T08:25:19.719Z,77.62
2022-09-20T08:28:10.514Z,77.20
2022-09-20T08:31:11.820Z,77.73
2022-09-20T08:34:06.380Z,78.33
2022-09-20T08:36:58.083Z,78.77
2022-09-20T08:39:58.431Z,78.66
2022-09-20T08:42:50.200Z,78.86
2022-09-20T08:45:41.486Z,79.28
2022-09-20T08:48:35.273Z,78.87
2022-09-20T08:51:26.454Z,79.73
2022-09-20T08:54:17.624Z,79.71
2022-09-20T08:57:18.664Z,80.26
2022-09-20T09:00:15.442Z,80.74
2022-09-20T09:03:21.561Z,80.17
2022-09-20T09:06:18.340Z,80.93
2022-09-20T09:09:09.413Z,81.13
2022-09-20T09:12:01.725Z,81.08
2022-09-20T09:14:56.748Z,81.37
2022-09-20T09:17:47.729Z,81.47
2022-09-20T09:20:49.130Z,81.80
2022-09-20T09:24:04.137Z,82.22
2022-09-20T09:27:18.321Z,82.51
2022-09-20T09:30:25.700Z,83.14
2022-09-20T09:33:27.157Z,82.94
2022-09-20T09:36:26.562Z,83.14
2022-09-20T09:39:39.716Z,83.88
2022-09-20T09:42:32.330Z,83.86
2022-09-20T09:45:40.533Z,83.97
2022-09-20T09:48:32.760Z,83.83
2022-09-20T09:51:24.933Z,83.74
2022-09-20T09:54:21.274Z,83.93
2022-09-20T09:57:28.596Z,84.37
2022-09-20T10:00:23.703Z,84.27
2022-09-20T10:03:40.739Z,83.91
2022-09-20T10:06:39.955Z,84.08
2022-09-20T10:09:50.458Z,83.58
2022-09-20T10:12:59.049Z,83.70
2022-09-20T10:16:14.279Z,83.88
2022-09-20T10:19:19.495Z,84.18
2022-09-20T10:22:31.207Z,84.08
2022-09-20T10:25:45.730Z,84.21
2022-09-20T10:29:06.162Z,84.60
2022-09-20T10:32:37.853Z,84.20
2022-09-20T10:35:53.612Z,84.80
2022-09-20T10:38:56.088Z,85.23
2022-09-20T10:42:46.124Z,85.46
2022-09-20T10:46:30.377Z,85.14
2022-09-20T10:49:37.791Z,85.01
2022-09-20T10:52:33.125Z,85.06
2022-09-20T10:55:29.675Z,85.11
2022-09-20T10:58:58.458Z,85.06
2022-09-20T11:02:03.575Z,85.29
2022-09-20T11:05:21.659Z,85.76
2022-09-20T11:08:29.984Z,85.77
2022-09-20T11:11:33.200Z,85.59
2022-09-20T11:14:54.808Z,86.05
2022-09-20T11:17:51.666Z,85.45
2022-09-20T11:21:02.394Z,85.25
2022-09-20T11:24:02.394Z,85.15
2022-09-20T11:27:28.399Z,85.04
2022-09-20T11:30:24.126Z,85.72
2022-09-20T11:33:23.038Z,85.24
2022-09-20T11:36:20.090Z,85.42
2022-09-20T11:39:18.717Z,85.54
2022-09-20T11:42:09.780Z,85.27
2022-09-20T11:45:00.037Z,85.31
2022-09-20T11:47:56.600Z,85.09
2022-09-20T11:51:10.818Z,85.21
2022-09-20T11:54:40.542Z,85.00
2022-09-20T11:57:32.844Z,84.59
2022-09-20T12:00:34.025Z,84.83
2022-09-20T12:03:32.809Z,84.67
2022-09-20T12:06:35.787Z,84.88
2022-09-20T12:09:35.420Z,85.63
2022-09-20T12:12:34.952Z,85.55
2022-09-20T12:15:47.180Z,85.93
2022-09-20T12:18:38.172Z,84.96
2022-09-20T12:21:28.791Z,84.94
2022-09-20T12:24:25.654Z,85.29
2022-09-20T12:27:29.994Z,85.20
2022-09-20T12:30:24.016Z,85.36
2022-09-20T12:33:23.630Z,85.52
2022-09-20T12:39:30.479Z,85.52
2022-09-20T12:42:23.191Z,84.95
2022-09-20T12:45:20.268Z,84.92
2022-09-20T12:48:23.321Z,84.86
2022-09-20T12:51:53.638Z,84.75
2022-09-20T12:54:59.455Z,84.94
2022-09-20T12:58:17.425Z,85.21
2022-09-20T13:01:11.966Z,84.55
2022-09-20T13:04:41.826Z,84.97
2022-09-20T13:07:38.908Z,84.76
2022-09-20T13:10:39.985Z,84.84
2022-09-20T13:13:42.739Z,85.19
2022-09-20T13:16:40.665Z,85.15
2022-09-20T13:19:46.652Z,84.64
2022-09-20T13:22:48.171Z,84.52
2022-09-20T13:25:44.829Z,84.63
2022-09-20T13:28:49.992Z,85.05
2022-09-20T13:31:40.385Z,84.81
2022-09-20T13:34:30.996Z,84.82
2022-09-20T13:37:29.516Z,85.09
2022-09-20T13:40:26.585Z,85.63
2022-09-20T13:43:30.816Z,85.18
2022-09-20T13:46:39.093Z,85.27
2022-09-20T13:49:34.369Z,85.14
2022-09-20T13:52:30.223Z,85.59
2022-09-20T13:55:43.275Z,85.18
2022-09-20T13:58:39.693Z,85.29
2022-09-20T14:01:42.882Z,85.56
2022-09-20T14:04:34.008Z,85.05
2022-09-20T14:07:28.424Z,84.75
2022-09-20T14:10:35.300Z,84.95
2022-09-20T14:13:28.805Z,84.68
2022-09-20T14:16:22.437Z,85.00
2022-09-20T14:19:19.085Z,84.83
2022-09-20T14:22:11.227Z,84.68
2022-09-20T14:25:16.518Z,84.31
2022-09-20T14:28:19.115Z,83.18
2022-09-20T14:31:12.400Z,82.98
2022-09-20T14:34:07.795Z,82.65
2022-09-20T14:37:20.338Z,82.64
2022-09-20T14:40:47.796Z,82.64
2022-09-20T14:43:38.779Z,82.87
2022-09-20T14:46:43.156Z,82.90
2022-09-20T14:49:37.944Z,82.26
2022-09-20T14:52:29.098Z,82.62
2022-09-20T14:55:27.094Z,82.32
2022-09-20T14:58:17.922Z,82.03
2022-09-20T15:01:25.830Z,82.27
2022-09-20T15:04:25.630Z,81.93
2022-09-20T15:07:16.893Z,82.40
2022-09-20T15:10:10.264Z,82.24
2022-09-20T15:13:01.388Z,82.42
2022-09-20T15:15:55.276Z,82.48
2022-09-20T15:18:47.220Z,82.13
2022-09-20T15:21:41.425Z,82.18
2022-09-20T15:24:33.191Z,82.21
2022-09-20T15:27:35.496Z,81.99
2022-09-20T15:30:25.789Z,81.73
2022-09-20T15:33:16.619Z,81.96
2022-09-20T15:36:08.818Z,81.86
2022-09-20T15:39:00.659Z,82.01
2022-09-20T15:41:55.861Z,81.92
2022-09-20T15:44:46.150Z,81.91
2022-09-20T15:47:44.037Z,82.30
2022-09-20T15:50:35.354Z,81.99
2022-09-20T15:53:26.584Z,81.96
2022-09-20T15:56:28.821Z,82.64
2022-09-20T15:59:20.635Z,82.31
2022-09-20T16:02:15.016Z,82.62
2022-09-20T16:05:07.482Z,82.64
2022-09-20T16:08:00.270Z,82.66
2022-09-20T16:11:00.785Z,83.00
2022-09-20T16:14:01.611Z,83.27
2022-09-20T16:16:55.981Z,82.97
2022-09-20T16:19:51.241Z,82.83
2022-09-20T16:22:42.558Z,82.48
2022-09-20T16:25:32.361Z,82.59
2022-09-20T16:28:24.197Z,82.51
2022-09-20T16:31:44.160Z,82.58
2022-09-20T16:34:38.392Z,82.43
2022-09-20T16:37:34.259Z,82.75
2022-09-20T16:40:24.947Z,82.14
2022-09-20T16:43:16.909Z,82.35
2022-09-20T16:46:11.301Z,82.22
2022-09-20T16:49:02.424Z,82.21
2022-09-20T16:51:56.446Z,82.29
2022-09-20T16:54:47.591Z,82.30
2022-09-20T16:57:38.324Z,82.69
2022-09-20T17:00:28.289Z,82.71
2022-09-20T17:03:18.726Z,82.39
2022-09-20T17:06:11.496Z,82.56
2022-09-20T17:09:02.059Z,82.88
2022-09-20T17:11:54.617Z,82.50
2022-09-20T17:14:45.511Z,82.47
2022-09-20T17:17:36.319Z,83.01
2022-09-20T17:20:30.650Z,82.82
2022-09-20T17:23:20.419Z,83.04
2022-09-20T17:26:24.529Z,82.86
2022-09-20T17:29:19.442Z,83.00
2022-09-20T17:32:09.399Z,82.83
2022-09-20T17:35:01.626Z,83.07
2022-09-20T17:37:51.450Z,83.40
2022-09-20T17:40:41.829Z,83.58
2022-09-20T17:43:32.964Z,83.57
2022-09-20T17:46:30.264Z,83.95
2022-09-20T17:49:23.315Z,83.91
2022-09-20T17:52:13.511Z,84.21
2022-09-20T17:55:05.929Z,83.89
2022-09-20T17:57:57.419Z,83.87
2022-09-20T18:00:50.340Z,84.73
2022-09-20T18:03:43.485Z,84.34
2022-09-20T18:06:40.676Z,84.56
2022-09-20T18:09:31.458Z,84.72
2022-09-20T18:12:22.732Z,84.60
2022-09-20T18:15:12.696Z,83.96
2022-09-20T18:18:02.774Z,83.96
2022-09-20T18:20:54.245Z,83.36
2022-09-20T18:23:45.207Z,82.45
2022-09-20T18:26:35.858Z,82.38
2022-09-20T18:29:26.292Z,82.52
2022-09-20T18:32:17.516Z,83.00
2022-09-20T18:35:09.240Z,82.64
2022-09-20T18:38:01.027Z,83.05
2022-09-20T18:41:01.896Z,83.13
2022-09-20T18:43:52.531Z,83.30
2022-09-20T18:46:45.235Z,83.24
2022-09-20T18:49:35.832Z,83.30
2022-09-20T18:52:26.401Z,83.16
2022-09-20T18:55:17.334Z,83.20
2022-09-20T18:58:07.859Z,83.48
2022-09-20T19:01:19.330Z,83.71
2022-09-20T19:04:40.442Z,83.71
2022-09-20T19:07:40.623Z,83.90
2022-09-20T19:10:50.070Z,84.41
2022-09-20T19:14:14.601Z,83.93
2022-09-20T19:17:05.032Z,84.29
2022-09-20T19:20:36.900Z,84.78
2022-09-20T19:23:45.742Z,84.75
2022-09-20T19:26:41.345Z,84.67
2022-09-20T19:29:31.250Z,84.71
2022-09-20T19:32:25.632Z,85.02
2022-09-20T19:35:26.010Z,85.37
2022-09-20T19:38:17.021Z,85.51
2022-09-20T19:41:40.719Z,85.88
2022-09-20T19:44:49.689Z,85.58
2022-09-20T19:48:02.114Z,86.04
2022-09-20T19:50:54.650Z,86.11
2022-09-20T19:53:45.428Z,86.13
2022-09-20T19:56:49.770Z,86.55
2022-09-20T19:59:40.659Z,86.21
2022-09-20T20:02:33.136Z,86.29
2022-09-20T20:05:29.115Z,86.24
2022-09-20T20:08:43.008Z,85.76
2022-09-20T20:11:47.451Z,85.64
2022-09-20T20:14:57.187Z,85.61
2022-09-20T20:18:13.314Z,86.27
2022-09-20T20:21:13.777Z,86.29
2022-09-20T20:24:43.419Z,86.59
2022-09-20T20:27:34.302Z,86.51
2022-09-20T20:30:24.261Z,86.48
2022-09-20T20:33:18.109Z,86.32
2022-09-20T20:36:13.718Z,86.79
2022-09-20T20:39:04.084Z,86.52
2022-09-20T20:41:54.272Z,86.47
2022-09-20T20:44:44.890Z,86.51
2022-09-20T20:47:35.735Z,86.62
2022-09-20T20:50:26.253Z,86.60
2022-09-20T20:53:20.161Z,86.83
2022-09-20T20:56:13.718Z,86.32
2022-09-20T20:59:06.356Z,86.59
2022-09-20T21:01:56.308Z,86.41
2022-09-20T21:04:46.555Z,86.75
2022-09-20T21:07:36.794Z,86.77
2022-09-20T21:10:26.775Z,86.47
2022-09-20T21:13:16.754Z,86.72
2022-09-20T21:16:08.885Z,86.58
2022-09-20T21:19:00.097Z,86.72
2022-09-20T21:21:50.371Z,86.37
2022-09-20T21:24:40.066Z,86.48
2022-09-20T21:27:31.107Z,87.02
2022-09-20T21:30:22.016Z,86.89
2022-09-20T21:33:13.017Z,86.28
2022-09-20T21:36:03.672Z,86.13
2022-09-20T21:38:54.721Z,86.08
2022-09-20T21:41:46.476Z,86.04
2022-09-20T21:44:36.558Z,86.06
2022-09-20T21:47:26.051Z,85.71
2022-09-20T21:50:16.711Z,86.03
2022-09-20T21:53:06.869Z,85.89
2022-09-20T21:56:05.759Z,86.28
2022-09-20T21:58:56.540Z,85.76
2022-09-20T22:01:46.443Z,85.92
2022-09-20T22:04:37.496Z,86.00
2022-09-20T22:07:27.831Z,86.00
2022-09-20T22:10:17.552Z,85.77
2022-09-20T22:13:07.439Z,85.73
2022-09-20T22:16:09.106Z,86.04
2022-09-20T22:19:03.137Z,85.74
2022-09-20T22:21:53.298Z,85.87
2022-09-20T22:24:44.096Z,86.34
2022-09-20T22:27:34.499Z,85.93
2022-09-20T22:30:25.090Z,85.98
2022-09-20T22:33:15.207Z,86.19
2022-09-20T22:36:05.725Z,86.19
2022-09-20T22:38:57.903Z,86.33
2022-09-20T22:41:49.368Z,85.97
2022-09-20T22:44:39.789Z,85.84
2022-09-20T22:47:30.279Z,85.37
2022-09-20T22:50:20.256Z,85.62
2022-09-20T22:53:10.636Z,85.33
2022-09-20T22:56:11.940Z,85.39
2022-09-20T22:59:13.445Z,85.49
2022-09-20T23:02:07.214Z,85.58
2022-09-20T23:04:57.086Z,85.44
2022-09-20T23:07:50.528Z,85.81
2022-09-20T23:10:41.326Z,85.25
2022-09-20T23:13:31.677Z,85.22
2022-09-20T23:16:24.394Z,85.23
2022-09-20T23:19:15.123Z,85.39
2022-09-20T23:22:07.432Z,85.08
2022-09-20T23:24:57.754Z,85.03
2022-09-20T23:27:49.731Z,84.87
2022-09-20T23:30:40.446Z,85.29
2022-09-20T23:33:33.368Z,84.97
2022-09-20T23:36:25.304Z,84.87
2022-09-20T23:39:16.182Z,84.68
2022-09-20T23:42:07.344Z,84.17
2022-09-20T23:44:58.520Z,83.99
2022-09-20T23:47:50.312Z,84.16
2022-09-20T23:50:40.755Z,83.69
2022-09-20T23:53:30.751Z,83.22
2022-09-20T23:56:21.404Z,83.38
2022-09-20T23:59:11.139Z,83.40
